Time;durP1;ratioP1;P1;durP2;ratioP2;P2;SDS_P1;SDS_P2;PMS_P1;PMS_P2;Temp;Humidity;BMP_temperature;BMP_pressure;BME280_temperature;BME280_humidity;BME280_pressure;Samples;Min_cycle;Max_cycle;Signal;HPM_P1;HPM_P2
2023/02/25 00:01:39;;;;;;;;;7.25;7.00;;;;;6.24;100.00;96306.25;4914657;28;102547;-72
2023/02/25 00:04:14;;;;;;;;;13.00;10.50;;;;;6.15;100.00;96291.53;4913042;28;102043;-71
2023/02/25 00:06:41;;;;;;;;;13.50;10.00;;;;;6.22;100.00;96297.63;4914266;28;101923;-72
2023/02/25 00:09:10;;;;;;;;;14.50;11.75;;;;;6.23;100.00;96307.31;4912462;28;104059;-72
2023/02/25 00:11:37;;;;;;;;;9.00;9.00;;;;;6.24;100.00;96310.81;4912682;28;102215;-72
2023/02/25 00:14:04;;;;;;;;;19.75;12.25;;;;;6.17;100.00;96286.75;4916831;28;102317;-72
2023/02/25 00:16:31;;;;;;;;;12.25;8.50;;;;;6.25;100.00;96302.53;4913832;28;102452;-72
2023/02/25 00:18:58;;;;;;;;;9.00;7.00;;;;;6.25;100.00;96291.81;4913357;28;103957;-72
2023/02/25 00:21:28;;;;;;;;;12.25;8.00;;;;;6.28;100.00;96280.59;4913693;28;110689;-72
2023/02/25 00:23:55;;;;;;;;;8.50;7.25;;;;;6.28;100.00;96274.41;4913837;28;104141;-72
2023/02/25 00:26:39;;;;;;;;;17.75;15.25;;;;;6.18;100.00;96258.88;4911205;28;102139;-72
2023/02/25 00:29:06;;;;;;;;;26.75;25.50;;;;;6.10;100.00;96263.75;4912646;28;103980;-72
2023/02/25 00:31:33;;;;;;;;;25.50;23.50;;;;;6.10;100.00;96261.09;4916096;28;102261;-71
2023/02/25 00:34:00;;;;;;;;;27.25;23.25;;;;;6.06;100.00;96255.38;4904131;28;102318;-72
2023/02/25 00:36:27;;;;;;;;;42.00;30.75;;;;;5.97;100.00;96248.69;4913953;28;102045;-71
2023/02/25 00:38:56;;;;;;;;;22.75;20.75;;;;;6.03;100.00;96244.28;4913957;28;104274;-71
2023/02/25 00:41:26;;;;;;;;;24.50;21.50;;;;;6.05;100.00;96248.34;4912758;28;102294;-71
2023/02/25 00:43:56;;;;;;;;;20.25;18.25;;;;;6.06;100.00;96244.63;4916435;28;102352;-70
2023/02/25 00:46:24;;;;;;;;;16.00;13.25;;;;;6.12;100.00;96242.91;4917168;28;101981;-70
2023/02/25 00:48:51;;;;;;;;;34.75;28.50;;;;;5.99;100.00;96235.84;4914840;28;104096;-73
2023/02/25 00:51:22;;;;;;;;;40.00;30.50;;;;;5.88;100.00;96222.44;4910710;28;102473;-70
2023/02/25 00:53:49;;;;;;;;;25.50;23.25;;;;;5.98;100.00;96242.28;4912218;28;101919;-70
2023/02/25 00:56:17;;;;;;;;;25.25;21.00;;;;;5.98;100.00;96236.09;4912948;28;102405;-71
2023/02/25 00:58:45;;;;;;;;;67.33;49.00;;;;;5.72;100.00;96226.53;4914222;28;104178;-71
2023/02/25 01:01:32;;;;;;;;;66.67;50.00;;;;;5.52;100.00;96213.44;4912017;28;102195;-71
2023/02/25 01:03:59;;;;;;;;;67.00;50.33;;;;;5.32;100.00;96218.25;4911398;28;102175;-71
2023/02/25 01:06:27;;;;;;;;;68.33;52.00;;;;;5.31;100.00;96198.66;4921209;28;102508;-71
2023/02/25 01:08:56;;;;;;;;;68.67;49.00;;;;;5.29;100.00;96182.00;4916123;28;104042;-71
2023/02/25 01:11:29;;;;;;;;;63.00;47.33;;;;;5.31;100.00;96193.31;4912190;28;102186;-70
2023/02/25 01:14:00;;;;;;;;;61.33;49.00;;;;;5.12;100.00;96172.16;4913701;28;102220;-71
2023/02/25 01:16:30;;;;;;;;;60.67;45.33;;;;;5.23;100.00;96180.22;4912768;28;102262;-71
2023/02/25 01:19:04;;;;;;;;;50.00;38.75;;;;;5.26;100.00;96177.13;4912617;28;104014;-70
2023/02/25 01:21:35;;;;;;;;;57.00;43.67;;;;;5.19;100.00;96189.75;4912376;28;102511;-71
2023/02/25 01:24:06;;;;;;;;;47.00;36.67;;;;;5.17;100.00;96194.56;4913589;28;103205;-71
2023/02/25 01:26:35;;;;;;;;;53.75;38.25;;;;;5.20;100.00;96186.06;4914978;28;103316;-71
2023/02/25 01:29:07;;;;;;;;;41.50;31.00;;;;;5.29;100.00;96184.69;4915456;28;108715;-71
2023/02/25 01:31:34;;;;;;;;;40.00;35.00;;;;;5.25;100.00;96186.19;4911819;28;102191;-71
2023/02/25 01:34:03;;;;;;;;;54.33;41.00;;;;;5.17;100.00;96197.22;4912341;28;102250;-71
2023/02/25 01:36:32;;;;;;;;;71.67;52.00;;;;;5.07;100.00;96199.63;4911085;28;102029;-71
2023/02/25 01:39:00;;;;;;;;;63.33;48.00;;;;;5.10;100.00;96192.97;4908859;28;104113;-71
2023/02/25 01:41:29;;;;;;;;;57.33;44.67;;;;;5.05;100.00;96196.34;4920461;28;103339;-71
2023/02/25 01:44:30;;;;;;;;;62.00;47.00;;;;;5.02;100.00;96190.63;4912436;28;102331;-72
2023/02/25 01:46:58;;;;;;;;;68.33;52.67;;;;;4.87;100.00;96186.47;4897262;28;102289;-70
2023/02/25 01:49:36;;;;;;;;;55.00;41.33;;;;;4.67;100.00;96191.25;4908255;28;104092;-70
2023/02/25 01:52:08;;;;;;;;;58.00;44.00;;;;;4.31;100.00;96197.38;4907403;28;102036;-70
2023/02/25 01:54:36;;;;;;;;;56.33;42.00;;;;;4.21;100.00;96186.34;4910378;28;102547;-71
2023/02/25 01:57:09;;;;;;;;;45.00;37.25;;;;;4.23;100.00;96204.88;4912277;28;102273;-70
2023/02/25 01:59:37;;;;;;;;;58.67;43.00;;;;;4.12;100.00;96195.69;4906492;28;108654;-74
2023/02/25 02:02:07;;;;;;;;;43.75;37.25;;;;;4.06;100.00;96204.59;4912317;28;102342;-70
2023/02/25 02:04:36;;;;;;;;;39.67;36.33;;;;;3.96;100.00;96197.06;4906597;28;102083;-71
2023/02/25 02:07:05;;;;;;;;;40.00;33.75;;;;;3.94;100.00;96195.66;4904313;28;102374;-70
2023/02/25 02:09:38;;;;;;;;;44.75;33.00;;;;;3.90;100.00;96197.13;4904868;28;108771;-69
2023/02/25 02:12:22;;;;;;;;;36.00;32.75;;;;;3.84;100.00;96196.13;4906306;28;103165;-70
2023/02/25 02:15:07;;;;;;;;;38.75;32.00;;;;;3.72;100.00;96213.91;4907811;28;102364;-69
2023/02/25 02:18:01;;;;;;;;;53.25;35.75;;;;;3.66;100.00;96193.41;4896154;28;104182;-70
2023/02/25 02:21:01;;;;;;;;;32.75;28.00;;;;;3.81;100.00;96199.25;4901619;28;108606;-70
2023/02/25 02:24:19;;;;;;;;;34.75;27.75;;;;;3.82;100.00;96192.88;4888476;28;102339;-70
2023/02/25 02:27:06;;;;;;;;;37.75;30.25;;;;;3.79;100.00;96208.50;4905364;28;102128;-71
2023/02/25 02:30:24;;;;;;;;;26.25;25.00;;;;;3.86;100.00;96207.44;4907010;28;102786;-70
2023/02/25 02:33:11;;;;;;;;;30.75;24.50;;;;;3.82;100.00;96194.72;4906912;28;108896;-71
2023/02/25 02:36:02;;;;;;;;;28.25;21.25;;;;;3.95;100.00;96208.81;4904842;28;102201;-71
2023/02/25 02:38:47;;;;;;;;;17.00;11.75;;;;;4.04;100.00;96209.34;4906533;28;102374;-70
2023/02/25 02:41:35;;;;;;;;;14.75;10.50;;;;;4.12;100.00;96192.19;4906494;28;102832;-71
2023/02/25 02:44:09;;;;;;;;;9.25;7.50;;;;;4.13;100.00;96204.53;4908902;28;108672;-71
2023/02/25 02:46:47;;;;;;;;;36.50;27.25;;;;;4.02;100.00;96188.16;4906254;28;109374;-74
2023/02/25 02:49:29;;;;;;;;;30.50;22.75;;;;;4.01;100.00;96180.34;4909453;28;102408;-70
2023/02/25 02:52:05;;;;;;;;;25.00;20.50;;;;;4.00;100.00;96189.44;4912801;28;110126;-70
2023/02/25 02:54:36;;;;;;;;;21.75;16.00;;;;;4.03;100.00;96189.00;4913546;28;108971;-71
2023/02/25 02:57:07;;;;;;;;;27.25;20.25;;;;;4.00;100.00;96184.09;4907131;28;103197;-71
2023/02/25 02:59:41;;;;;;;;;19.75;18.25;;;;;4.01;100.00;96185.72;4911144;28;102204;-71
2023/02/25 03:02:17;;;;;;;;;27.75;25.00;;;;;3.87;100.00;96197.56;4911150;28;102087;-72
2023/02/25 03:04:47;;;;;;;;;35.50;25.75;;;;;3.86;100.00;96204.78;4912610;28;104236;-72
2023/02/25 03:07:17;;;;;;;;;21.75;19.00;;;;;3.95;100.00;96202.66;4911878;28;102498;-72
2023/02/25 03:09:56;;;;;;;;;26.25;22.75;;;;;3.96;100.00;96210.44;4908267;28;104297;-72
2023/02/25 03:12:23;;;;;;;;;25.25;21.00;;;;;3.86;100.00;96214.63;4908557;28;103513;-72
2023/02/25 03:14:50;;;;;;;;;35.25;31.00;;;;;3.87;99.37;96232.31;4906803;28;104134;-72
2023/02/25 03:17:19;;;;;;;;;35.25;26.00;;;;;3.89;99.80;96238.25;4907832;28;102380;-72
2023/02/25 03:20:07;;;;;;;;;22.25;18.00;;;;;3.90;99.33;96245.25;4906575;28;104147;-72
2023/02/25 03:22:38;;;;;;;;;42.25;35.50;;;;;3.69;98.85;96229.56;4914338;28;102327;-71
2023/02/25 03:25:17;;;;;;;;;31.00;23.75;;;;;3.88;99.09;96239.28;4911191;28;108914;-72
2023/02/25 03:27:46;;;;;;;;;31.00;21.75;;;;;3.91;98.76;96244.22;4909287;28;101979;-72
2023/02/25 03:30:28;;;;;;;;;36.25;25.00;;;;;3.84;97.65;96233.56;4909863;28;102367;-72
2023/02/25 03:33:02;;;;;;;;;35.75;34.00;;;;;3.60;98.92;96232.47;4916057;28;102331;-72
2023/02/25 03:35:31;;;;;;;;;41.50;33.00;;;;;3.56;98.79;96225.94;4916123;28;104173;-72
2023/02/25 03:38:03;;;;;;;;;43.00;34.67;;;;;3.42;99.75;96242.28;4915535;28;102015;-72
2023/02/25 03:40:31;;;;;;;;;58.00;39.67;;;;;3.23;100.00;96241.34;4914118;28;101955;-72
2023/02/25 03:43:06;;;;;;;;;42.33;35.33;;;;;3.22;100.00;96260.22;4915262;28;102387;-71
2023/02/25 03:45:38;;;;;;;;;44.33;37.33;;;;;2.96;100.00;96251.31;4910772;28;108714;-71
2023/02/25 03:48:08;;;;;;;;;36.00;32.67;;;;;2.91;100.00;96243.13;4914827;28;101969;-72
2023/02/25 03:50:43;;;;;;;;;27.25;25.00;;;;;2.73;99.82;96258.16;4912441;28;102499;-74
2023/02/25 03:53:11;;;;;;;;;25.50;21.75;;;;;2.61;99.86;96266.78;4914952;28;102592;-72
2023/02/25 03:55:38;;;;;;;;;20.75;17.00;;;;;2.59;100.00;96286.72;4911776;28;103989;-72
2023/02/25 03:58:07;;;;;;;;;23.25;19.25;;;;;2.49;99.21;96284.47;4928050;28;102342;-72
2023/02/25 04:00:37;;;;;;;;;23.00;17.75;;;;;2.53;99.72;96293.69;4915124;28;102652;-73
2023/02/25 04:03:04;;;;;;;;;31.00;20.75;;;;;2.50;99.31;96293.28;4916480;28;101979;-71
2023/02/25 04:05:31;;;;;;;;;25.00;20.50;;;;;2.37;99.03;96303.97;4912497;28;109703;-71
2023/02/25 04:07:59;;;;;;;;;19.25;18.25;;;;;2.35;100.00;96301.50;4911883;28;101990;-72
2023/02/25 04:10:26;;;;;;;;;23.75;19.25;;;;;2.33;100.00;96298.22;4911694;28;102275;-71
2023/02/25 04:12:53;;;;;;;;;18.00;17.00;;;;;2.39;99.73;96291.22;4916377;28;102271;-72
2023/02/25 04:15:21;;;;;;;;;26.25;19.75;;;;;2.39;100.00;96294.72;4910847;28;104036;-72
2023/02/25 04:17:48;;;;;;;;;16.00;14.25;;;;;2.45;100.00;96290.41;4912349;28;102114;-71
2023/02/25 04:20:16;;;;;;;;;23.75;21.75;;;;;2.37;99.35;96288.78;4912375;28;102073;-71
2023/02/25 04:22:43;;;;;;;;;25.00;22.50;;;;;2.24;100.00;96288.81;4901425;28;102057;-71
2023/02/25 04:25:10;;;;;;;;;19.25;15.00;;;;;2.36;100.00;96292.47;4895352;28;104019;-71
2023/02/25 04:27:37;;;;;;;;;16.75;14.25;;;;;2.38;99.14;96290.44;4912786;28;102077;-73
2023/02/25 04:30:04;;;;;;;;;20.25;15.00;;;;;2.35;98.12;96290.81;4912933;28;103770;-72
2023/02/25 04:32:32;;;;;;;;;18.00;15.00;;;;;2.18;98.05;96281.63;4915012;28;102181;-73
2023/02/25 04:35:02;;;;;;;;;17.00;14.00;;;;;2.25;98.47;96279.78;4911507;28;104041;-72
2023/02/25 04:37:30;;;;;;;;;15.75;12.75;;;;;2.27;98.77;96288.38;4911508;28;102098;-70
2023/02/25 04:39:57;;;;;;;;;14.00;11.00;;;;;2.31;99.11;96283.44;4910299;28;102177;-70
2023/02/25 04:42:24;;;;;;;;;11.25;9.25;;;;;2.33;98.85;96282.22;4913898;28;102266;-71
2023/02/25 04:44:51;;;;;;;;;9.00;9.00;;;;;2.32;98.76;96285.91;4911937;28;104398;-71
2023/02/25 04:47:18;;;;;;;;;9.25;6.25;;;;;2.37;98.63;96280.78;4914692;28;102066;-71
2023/02/25 04:49:45;;;;;;;;;4.50;3.00;;;;;2.42;99.18;96269.50;4915193;28;102451;-71
2023/02/25 04:52:13;;;;;;;;;5.25;5.00;;;;;2.46;98.80;96266.22;4915853;28;101997;-72
2023/02/25 04:54:41;;;;;;;;;7.00;6.25;;;;;2.46;98.22;96273.41;4911360;28;104016;-73
2023/02/25 04:57:09;;;;;;;;;3.00;2.00;;;;;2.47;98.97;96273.19;4913528;28;102427;-72
2023/02/25 04:59:37;;;;;;;;;2.00;2.00;;;;;2.49;99.11;96276.47;4912678;28;102099;-75
2023/02/25 05:02:06;;;;;;;;;3.00;2.00;;;;;2.47;97.95;96270.53;4916633;28;102084;-72
2023/02/25 05:04:37;;;;;;;;;5.25;3.00;;;;;2.44;98.05;96275.44;4913054;28;108742;-72
2023/02/25 05:07:05;;;;;;;;;1.00;1.00;;;;;2.47;98.52;96278.53;4914112;28;101992;-71
2023/02/25 05:09:33;;;;;;;;;2.00;1.25;;;;;2.46;98.75;96278.72;4913434;28;102687;-71
2023/02/25 05:12:01;;;;;;;;;3.00;2.00;;;;;2.43;97.50;96279.94;4913977;28;102463;-72
2023/02/25 05:14:28;;;;;;;;;2.75;2.00;;;;;2.39;98.51;96268.06;4911019;28;103765;-71
2023/02/25 05:16:58;;;;;;;;;1.25;1.25;;;;;2.38;98.07;96268.28;4912745;28;103913;-72
2023/02/25 05:19:25;;;;;;;;;2.50;2.50;;;;;2.34;98.68;96270.53;4914009;28;102394;-71
2023/02/25 05:21:52;;;;;;;;;2.50;1.50;;;;;2.30;98.37;96276.50;4905061;28;102797;-71
2023/02/25 05:24:22;;;;;;;;;1.50;1.50;;;;;2.23;98.44;96281.81;4911943;28;104140;-71
2023/02/25 05:26:50;;;;;;;;;3.00;1.00;;;;;2.22;98.65;96290.84;4914022;28;102313;-71
2023/02/25 05:29:17;;;;;;;;;4.50;1.00;;;;;2.16;98.00;96289.81;4904321;28;102258;-71
2023/02/25 05:31:45;;;;;;;;;6.00;5.00;;;;;2.10;98.22;96293.31;4912343;28;102253;-71
2023/02/25 05:34:12;;;;;;;;;3.00;2.25;;;;;2.04;98.22;96286.13;4911939;28;104124;-72
2023/02/25 05:36:39;;;;;;;;;2.25;2.00;;;;;2.01;98.61;96305.19;4905288;28;102059;-71
2023/02/25 05:39:06;;;;;;;;;3.00;2.75;;;;;1.85;99.28;96278.13;4914865;28;102330;-71
2023/02/25 05:41:33;;;;;;;;;2.00;1.75;;;;;2.01;99.56;96317.69;4910693;28;102082;-71
2023/02/25 05:44:00;;;;;;;;;5.75;4.50;;;;;2.02;100.00;96306.03;4890001;28;104346;-71
2023/02/25 05:46:27;;;;;;;;;1.00;0.00;;;;;2.05;100.00;96311.75;4886963;28;102056;-72
2023/02/25 05:48:54;;;;;;;;;5.00;5.00;;;;;2.08;100.00;96310.50;4888092;28;102512;-71
2023/02/25 05:51:22;;;;;;;;;4.00;2.00;;;;;2.11;100.00;96316.28;4884396;28;102429;-71
2023/02/25 05:53:52;;;;;;;;;5.00;3.00;;;;;2.08;100.00;96305.19;4884943;28;103993;-71
2023/02/25 05:56:23;;;;;;;;;4.00;2.25;;;;;2.18;100.00;96305.59;4891399;28;102197;-71
2023/02/25 05:58:51;;;;;;;;;6.00;3.00;;;;;2.20;100.00;96308.91;4880737;28;101992;-71
2023/02/25 06:01:26;;;;;;;;;3.00;2.00;;;;;2.18;100.00;96300.28;4889480;28;102316;-71
2023/02/25 06:03:57;;;;;;;;;2.75;2.00;;;;;2.28;100.00;96316.69;4888373;28;104152;-71
2023/02/25 06:06:27;;;;;;;;;7.25;4.00;;;;;2.31;100.00;96318.09;4885405;28;102516;-71
2023/02/25 06:08:54;;;;;;;;;6.50;5.00;;;;;2.32;100.00;96311.75;4892625;28;102282;-71
2023/02/25 06:11:29;;;;;;;;;3.50;2.50;;;;;2.36;100.00;96305.81;4890967;28;102192;-71
2023/02/25 06:13:57;;;;;;;;;4.50;3.00;;;;;2.40;100.00;96301.69;4896333;28;103704;-71
2023/02/25 06:16:30;;;;;;;;;5.50;5.50;;;;;2.44;100.00;96302.09;4885726;28;102183;-72
2023/02/25 06:18:59;;;;;;;;;6.50;5.75;;;;;2.47;100.00;96297.19;4896754;28;103850;-72
2023/02/25 06:21:26;;;;;;;;;14.25;11.00;;;;;2.51;100.00;96301.09;4882783;28;102634;-72
2023/02/25 06:23:54;;;;;;;;;11.00;7.00;;;;;2.57;100.00;96302.91;4890391;28;104013;-71
2023/02/25 06:26:21;;;;;;;;;7.00;6.75;;;;;2.62;100.00;96307.63;4892011;28;102505;-71
2023/02/25 06:28:49;;;;;;;;;6.75;6.00;;;;;2.65;99.53;96300.03;4892069;28;102620;-71
2023/02/25 06:31:17;;;;;;;;;8.00;6.00;;;;;2.65;99.59;96292.03;4883873;28;104860;-72
2023/02/25 06:33:46;;;;;;;;;8.25;5.75;;;;;2.69;99.99;96309.28;4893743;28;104015;-72
2023/02/25 06:36:14;;;;;;;;;6.00;6.00;;;;;2.70;99.81;96308.22;4890468;28;102193;-71
2023/02/25 06:38:42;;;;;;;;;3.00;3.00;;;;;2.55;99.74;96275.63;4890900;28;102204;-71
2023/02/25 06:41:20;;;;;;;;;2.75;2.25;;;;;2.81;100.00;96303.28;4889964;28;102200;-72
2023/02/25 06:43:51;;;;;;;;;4.00;3.00;;;;;2.84;99.47;96316.19;4891655;28;104014;-71
2023/02/25 06:46:24;;;;;;;;;6.00;4.50;;;;;2.87;99.66;96318.47;4891485;28;102215;-71
2023/02/25 06:48:53;;;;;;;;;5.00;5.00;;;;;2.67;99.60;96289.97;4893160;28;102349;-71
2023/02/25 06:51:20;;;;;;;;;19.25;15.00;;;;;2.87;98.70;96327.31;4894472;28;102551;-72
2023/02/25 06:53:49;;;;;;;;;6.75;6.25;;;;;2.92;99.08;96321.34;4890614;28;103686;-71
2023/02/25 06:56:18;;;;;;;;;8.75;8.25;;;;;2.97;98.53;96326.88;4888332;28;102376;-70
2023/02/25 06:58:46;;;;;;;;;10.25;8.25;;;;;3.05;98.73;96316.78;4892384;28;102345;-72
2023/02/25 07:01:15;;;;;;;;;18.00;15.00;;;;;3.10;98.50;96327.66;4891990;28;102053;-72
2023/02/25 07:03:42;;;;;;;;;11.50;10.00;;;;;3.15;98.42;96327.03;4891428;28;104396;-72
2023/02/25 07:06:10;;;;;;;;;14.00;8.25;;;;;3.18;98.91;96333.78;4892812;28;102127;-73
2023/02/25 07:08:37;;;;;;;;;23.00;21.25;;;;;3.04;97.20;96330.31;4897468;28;102284;-71
2023/02/25 07:11:13;;;;;;;;;38.33;31.00;;;;;2.83;98.42;96333.25;4897263;28;102254;-71
2023/02/25 07:13:42;;;;;;;;;31.33;26.33;;;;;2.87;99.74;96337.97;4894150;28;109156;-71
2023/02/25 07:16:14;;;;;;;;;35.25;27.50;;;;;2.85;99.14;96341.84;4893438;28;102398;-72
2023/02/25 07:18:42;;;;;;;;;24.25;18.25;;;;;2.92;99.95;96345.34;4894634;28;101872;-72
2023/02/25 07:21:11;;;;;;;;;19.00;15.00;;;;;2.98;98.89;96334.66;4897616;28;102385;-71
2023/02/25 07:23:38;;;;;;;;;20.25;17.25;;;;;2.92;98.85;96342.69;4896047;28;104039;-71
2023/02/25 07:26:08;;;;;;;;;20.50;16.00;;;;;3.01;98.87;96334.25;4897373;28;102476;-71
2023/02/25 07:28:36;;;;;;;;;15.50;12.50;;;;;3.04;97.50;96344.50;4893920;28;101984;-71
2023/02/25 07:31:09;;;;;;;;;14.25;11.00;;;;;2.98;96.66;96341.84;4897381;28;103265;-71
2023/02/25 07:33:36;;;;;;;;;23.75;16.00;;;;;2.83;96.20;96341.28;4895250;28;108737;-71
2023/02/25 07:36:03;;;;;;;;;15.00;9.25;;;;;2.68;95.63;96354.81;4894426;28;102404;-71
2023/02/25 07:38:30;;;;;;;;;8.25;7.25;;;;;2.53;94.72;96349.69;4891148;28;101928;-71
2023/02/25 07:41:03;;;;;;;;;15.00;10.75;;;;;2.23;95.99;96357.28;4895799;28;102542;-72
2023/02/25 07:43:30;;;;;;;;;13.00;12.00;;;;;1.97;95.64;96335.13;4898192;28;103948;-72
2023/02/25 07:45:57;;;;;;;;;13.00;11.00;;;;;1.94;96.99;96349.66;4911376;28;102305;-72
2023/02/25 07:48:24;;;;;;;;;19.00;15.00;;;;;1.73;98.23;96347.97;4918527;28;102401;-72
2023/02/25 07:50:51;;;;;;;;;18.25;16.50;;;;;1.69;98.66;96341.41;4912874;28;102420;-73
2023/02/25 07:53:21;;;;;;;;;19.50;15.00;;;;;1.59;98.78;96367.59;4895948;28;104203;-72
2023/02/25 07:55:49;;;;;;;;;10.00;7.50;;;;;1.49;98.80;96383.13;4918366;28;102454;-73
2023/02/25 07:58:16;;;;;;;;;4.00;3.25;;;;;1.33;97.89;96330.22;4914301;28;102279;-73
2023/02/25 08:00:45;;;;;;;;;2.00;2.00;;;;;1.36;97.40;96327.16;4920915;28;102217;-73
2023/02/25 08:03:12;;;;;;;;;2.00;2.00;;;;;1.46;96.93;96310.81;4916503;28;103668;-73
2023/02/25 08:05:39;;;;;;;;;2.00;2.00;;;;;1.62;97.28;96316.59;4919283;28;102270;-72
2023/02/25 08:08:06;;;;;;;;;3.25;1.25;;;;;1.78;96.99;96310.91;4915300;28;102081;-72
2023/02/25 08:10:36;;;;;;;;;6.75;4.25;;;;;1.89;96.51;96324.66;4919222;28;102573;-72
2023/02/25 08:13:03;;;;;;;;;5.00;3.50;;;;;2.10;94.99;96325.28;4921868;28;108457;-71
2023/02/25 08:15:31;;;;;;;;;6.00;6.00;;;;;2.23;92.92;96324.47;4915023;28;102033;-72
2023/02/25 08:17:58;;;;;;;;;9.25;7.00;;;;;2.43;92.50;96325.28;4927481;28;102269;-71
2023/02/25 08:20:25;;;;;;;;;5.50;5.25;;;;;2.68;92.56;96331.63;4929660;28;102652;-72
2023/02/25 08:22:52;;;;;;;;;1.75;0.25;;;;;2.92;91.91;96330.16;4912412;28;104033;-72
2023/02/25 08:25:19;;;;;;;;;6.25;5.50;;;;;3.15;91.72;96329.69;4914815;28;102256;-72
2023/02/25 08:27:45;;;;;;;;;5.00;5.00;;;;;3.27;91.91;96329.84;4915695;28;102511;-71
2023/02/25 08:30:14;;;;;;;;;9.00;7.00;;;;;3.25;93.13;96318.53;4919425;28;102614;-71
2023/02/25 08:32:40;;;;;;;;;12.25;9.00;;;;;3.41;92.03;96342.94;4929061;28;103998;-71
2023/02/25 08:35:08;;;;;;;;;9.25;6.00;;;;;3.39;91.64;96330.81;4916707;28;102129;-70
2023/02/25 08:37:35;;;;;;;;;23.50;16.00;;;;;3.26;89.85;96334.38;4905040;28;102507;-70
2023/02/25 08:40:06;;;;;;;;;12.75;10.25;;;;;3.41;91.38;96334.94;4908938;28;102322;-71
2023/02/25 08:42:33;;;;;;;;;12.00;9.50;;;;;3.60;91.46;96342.03;4910185;28;108819;-71
2023/02/25 08:45:00;;;;;;;;;10.25;8.50;;;;;3.66;90.80;96342.22;4910482;28;102378;-70
2023/02/25 08:47:27;;;;;;;;;11.50;10.00;;;;;3.63;91.36;96330.09;4907983;28;102386;-71
2023/02/25 08:49:54;;;;;;;;;8.75;7.00;;;;;3.74;91.08;96340.09;4913804;28;102197;-72
2023/02/25 08:52:22;;;;;;;;;9.25;7.00;;;;;3.78;90.63;96335.19;4911838;28;103026;-72
2023/02/25 08:54:50;;;;;;;;;12.50;10.00;;;;;3.73;88.85;96341.16;4910715;28;102267;-71
2023/02/25 08:57:17;;;;;;;;;11.75;10.50;;;;;3.84;89.39;96342.31;4912185;28;104235;-71
2023/02/25 08:59:44;;;;;;;;;2.25;2.25;;;;;3.83;87.45;96340.69;4909631;28;102177;-71
2023/02/25 09:02:14;;;;;;;;;10.75;7.75;;;;;3.66;87.63;96331.53;4908250;28;104021;-71
2023/02/25 09:04:41;;;;;;;;;12.25;10.25;;;;;3.73;86.32;96343.84;4905428;28;104107;-72
2023/02/25 09:07:08;;;;;;;;;7.00;6.50;;;;;3.91;86.98;96337.78;4911180;28;103332;-71
2023/02/25 09:09:35;;;;;;;;;10.75;6.25;;;;;4.04;86.33;96341.19;4911460;28;102018;-70
2023/02/25 09:12:04;;;;;;;;;7.00;5.25;;;;;4.20;87.92;96339.84;4910896;28;103986;-71
2023/02/25 09:14:32;;;;;;;;;3.50;3.50;;;;;4.24;86.43;96322.31;4911416;28;102578;-71
2023/02/25 09:17:01;;;;;;;;;9.50;7.00;;;;;4.27;86.50;96335.28;4910900;28;102338;-71
2023/02/25 09:19:28;;;;;;;;;3.25;2.00;;;;;4.31;86.78;96325.78;4908997;28;102395;-71
2023/02/25 09:21:55;;;;;;;;;8.00;6.00;;;;;4.45;85.83;96337.19;4910557;28;104010;-71
2023/02/25 09:24:22;;;;;;;;;5.00;5.00;;;;;4.56;85.74;96338.31;4910236;28;101980;-70
2023/02/25 09:26:49;;;;;;;;;4.00;3.00;;;;;4.72;86.41;96332.44;4910142;28;102486;-71
2023/02/25 09:29:19;;;;;;;;;6.25;4.75;;;;;4.78;84.61;96327.00;4913885;28;102415;-71
2023/02/25 09:31:46;;;;;;;;;5.00;3.00;;;;;4.95;84.18;96327.28;4910925;28;104015;-71
2023/02/25 09:34:14;;;;;;;;;6.75;6.00;;;;;4.98;82.05;96332.19;4903518;28;103037;-70
2023/02/25 09:36:41;;;;;;;;;5.75;3.00;;;;;4.90;81.89;96324.44;4914633;28;102292;-71
2023/02/25 09:39:08;;;;;;;;;5.25;5.25;;;;;4.91;80.85;96336.75;4916126;28;102155;-71
2023/02/25 09:41:48;;;;;;;;;6.00;5.25;;;;;4.84;78.76;96334.16;4910293;28;108719;-70
2023/02/25 09:44:20;;;;;;;;;8.00;6.00;;;;;4.63;77.82;96312.34;4918050;28;102206;-69
2023/02/25 09:47:03;;;;;;;;;8.00;6.00;;;;;4.73;79.30;96339.41;4913710;28;102104;-70
2023/02/25 09:49:45;;;;;;;;;6.50;6.00;;;;;4.68;79.73;96344.63;4916714;28;102304;-70
2023/02/25 09:52:17;;;;;;;;;10.75;8.00;;;;;4.72;78.66;96338.59;4909669;28;108358;-70
2023/02/25 09:54:47;;;;;;;;;13.25;13.00;;;;;4.71;78.30;96341.50;4911406;28;101934;-69
2023/02/25 09:57:20;;;;;;;;;7.00;6.00;;;;;4.84;79.17;96336.84;4910696;28;102298;-69
2023/02/25 09:59:50;;;;;;;;;6.50;5.75;;;;;4.97;79.73;96337.75;4911758;28;102770;-68
2023/02/25 10:02:20;;;;;;;;;6.50;5.50;;;;;5.04;80.04;96336.66;4909259;28;103997;-69
2023/02/25 10:05:17;;;;;;;;;7.00;5.25;;;;;5.19;78.23;96326.38;4909300;28;101943;-68
2023/02/25 10:07:59;;;;;;;;;4.25;4.25;;;;;5.28;77.51;96330.41;4906299;28;103462;-70
2023/02/25 10:10:37;;;;;;;;;7.00;5.00;;;;;5.05;76.84;96338.28;4898137;28;104079;-69
2023/02/25 10:13:14;;;;;;;;;6.00;2.50;;;;;4.84;76.78;96336.84;4912661;28;108356;-69
2023/02/25 10:16:01;;;;;;;;;4.50;2.75;;;;;4.68;78.84;96333.91;4907778;28;102488;-69
2023/02/25 10:18:54;;;;;;;;;1.00;1.00;;;;;4.60;78.90;96344.88;4914706;28;102431;-69
2023/02/25 10:21:33;;;;;;;;;5.50;4.00;;;;;3.96;80.86;96360.13;4910784;28;102097;-70
2023/02/25 10:24:05;;;;;;;;;3.50;3.00;;;;;3.65;84.41;96372.66;4907187;28;104094;-69
2023/02/25 10:26:50;;;;;;;;;3.00;2.00;;;;;3.13;87.41;96379.81;4905923;28;102554;-69
2023/02/25 10:29:37;;;;;;;;;5.75;4.25;;;;;2.64;90.72;96391.78;4911018;28;102524;-70
2023/02/25 10:32:40;;;;;;;;;4.00;3.00;;;;;2.74;92.19;96386.03;4912281;28;102901;-69
2023/02/25 10:35:18;;;;;;;;;3.00;2.75;;;;;2.91;93.18;96370.41;4841182;28;109002;-69
2023/02/25 10:37:45;;;;;;;;;4.00;2.25;;;;;3.15;93.10;96378.53;4903481;28;102160;-69
2023/02/25 10:40:18;;;;;;;;;5.25;3.00;;;;;3.22;92.26;96367.88;4906061;28;102184;-70
2023/02/25 10:42:53;;;;;;;;;7.00;5.25;;;;;3.20;92.05;96371.78;4908938;28;102310;-69
2023/02/25 10:45:25;;;;;;;;;3.50;3.00;;;;;3.33;92.74;96371.75;4890672;28;103995;-69
2023/02/25 10:48:11;;;;;;;;;6.00;4.00;;;;;3.40;92.91;96365.34;4892422;28;102408;-70
2023/02/25 10:50:38;;;;;;;;;6.00;5.00;;;;;3.34;91.81;96366.19;4886792;28;103168;-71
2023/02/25 10:53:15;;;;;;;;;4.00;3.00;;;;;3.51;91.98;96351.31;4886061;28;104499;-70
2023/02/25 10:55:51;;;;;;;;;4.50;3.00;;;;;3.65;91.63;96361.97;4896004;28;104124;-70
2023/02/25 10:58:30;;;;;;;;;2.75;2.75;;;;;3.70;89.89;96352.25;4890156;28;102910;-70
2023/02/25 11:01:18;;;;;;;;;5.00;3.00;;;;;3.81;90.41;96329.41;4884640;28;103837;-70
2023/02/25 11:03:58;;;;;;;;;4.50;3.50;;;;;4.06;90.29;96346.31;4889426;28;102094;-70
2023/02/25 11:06:29;;;;;;;;;6.00;5.00;;;;;4.16;89.34;96349.31;4898813;28;104050;-69
2023/02/25 11:08:59;;;;;;;;;10.00;7.25;;;;;4.23;90.15;96349.31;4891979;28;102363;-70
2023/02/25 11:11:36;;;;;;;;;10.00;5.50;;;;;4.15;88.29;96353.03;4889101;28;102455;-70
2023/02/25 11:14:08;;;;;;;;;5.50;5.25;;;;;4.10;88.96;96352.84;4893999;28;102792;-69
2023/02/25 11:16:38;;;;;;;;;7.00;6.00;;;;;4.18;89.24;96347.28;4885436;28;108452;-70
2023/02/25 11:19:19;;;;;;;;;6.00;5.00;;;;;4.20;88.03;96349.72;4886807;28;102340;-71
2023/02/25 11:21:46;;;;;;;;;5.50;5.00;;;;;4.28;88.61;96347.59;4888997;28;102120;-70
2023/02/25 11:24:35;;;;;;;;;6.50;5.25;;;;;4.38;87.57;96353.28;4895979;28;102429;-70
2023/02/25 11:27:18;;;;;;;;;9.00;8.00;;;;;4.49;88.14;96359.81;4892443;28;104082;-69
2023/02/25 11:29:49;;;;;;;;;7.00;6.75;;;;;4.74;87.33;96351.75;4882932;28;102330;-69
2023/02/25 11:32:21;;;;;;;;;6.25;5.50;;;;;4.82;86.02;96348.78;4883801;28;102138;-68
2023/02/25 11:34:54;;;;;;;;;7.75;7.00;;;;;4.88;85.03;96361.31;4888107;28;102354;-69
2023/02/25 11:37:31;;;;;;;;;7.00;6.25;;;;;4.91;84.80;96356.31;4899875;28;104218;-71
2023/02/25 11:39:59;;;;;;;;;7.25;6.00;;;;;5.02;84.15;96357.47;4895028;28;102125;-69
2023/02/25 11:42:29;;;;;;;;;6.00;6.00;;;;;4.90;82.26;96345.84;4891596;28;102368;-68